Time;durP1;ratioP1;P1;durP2;ratioP2;P2;SDS_P1;SDS_P2;PMS_P1;PMS_P2;Temp;Humidity;BMP_temperature;BMP_pressure;BME280_temperature;BME280_humidity;BME280_pressure;Samples;Min_cycle;Max_cycle;Signal;HPM_P1;HPM_P2
2024/01/17 00:00:18;;;;;;;15.13;8.77;;;0.60;1.00;;;;;;20579502;28;20123;-42
2024/01/17 00:10:19;;;;;;;17.17;9.25;;;0.60;1.00;;;;;;20568995;28;20549;-42
2024/01/17 00:20:19;;;;;;;18.45;10.98;;;0.50;1.00;;;;;;20575093;28;20475;-42
2024/01/17 00:30:20;;;;;;;22.25;10.10;;;0.40;1.00;;;;;;20571187;28;20042;-42
2024/01/17 00:40:21;;;;;;;22.63;10.52;;;0.30;1.00;;;;;;20571443;28;20493;-41
2024/01/17 00:50:22;;;;;;;26.48;10.43;;;0.40;1.00;;;;;;20568757;28;20082;-41
2024/01/17 01:00:23;;;;;;;23.15;10.38;;;0.20;1.00;;;;;;20577853;28;20525;-41
2024/01/17 01:10:23;;;;;;;22.88;11.20;;;0.30;1.00;;;;;;20586356;28;20435;-42
2024/01/17 01:20:24;;;;;;;19.40;10.80;;;0.30;1.00;;;;;;20580197;28;20039;-43
2024/01/17 01:30:25;;;;;;;19.38;11.00;;;0.20;1.00;;;;;;20586134;28;20043;-41
2024/01/17 01:40:25;;;;;;;22.65;10.63;;;0.20;1.00;;;;;;20584428;28;20081;-41
2024/01/17 01:50:27;;;;;;;25.58;11.80;;;0.10;1.00;;;;;;20579803;28;20068;-41
2024/01/17 02:00:27;;;;;;;19.40;11.30;;;0.10;1.00;;;;;;20587247;28;20042;-42
2024/01/17 02:10:28;;;;;;;26.05;11.93;;;0.10;1.00;;;;;;20583550;28;20045;-41
2024/01/17 02:20:29;;;;;;;25.77;11.00;;;0.10;1.00;;;;;;20578110;28;20560;-41
2024/01/17 02:30:30;;;;;;;22.85;11.52;;;0.00;1.00;;;;;;20573744;28;20046;-42
2024/01/17 02:40:30;;;;;;;26.40;11.10;;;0.10;1.00;;;;;;20570859;28;20175;-42
2024/01/17 02:50:31;;;;;;;26.13;12.63;;;-0.10;1.00;;;;;;20572640;28;20050;-41
2024/01/17 03:00:33;;;;;;;23.33;10.88;;;-0.10;1.00;;;;;;20574764;28;20552;-42
2024/01/17 03:10:35;;;;;;;23.10;11.88;;;0.00;1.00;;;;;;20564973;28;20050;-42
2024/01/17 03:20:35;;;;;;;22.90;11.25;;;-0.10;1.00;;;;;;20564471;28;20043;-41
2024/01/17 03:30:36;;;;;;;21.10;11.00;;;-0.10;1.00;;;;;;20566666;28;20054;-41
2024/01/17 03:40:37;;;;;;;21.85;10.25;;;-0.10;1.00;;;;;;20566760;28;20486;-41
2024/01/17 03:50:37;;;;;;;17.67;9.60;;;-0.20;1.00;;;;;;20567525;28;20050;-42
2024/01/17 04:00:38;;;;;;;22.60;10.63;;;-0.30;1.00;;;;;;20570583;28;20053;-41
2024/01/17 04:10:39;;;;;;;20.15;10.18;;;-0.30;1.00;;;;;;20564255;28;20323;-41
2024/01/17 04:20:40;;;;;;;19.95;10.13;;;-0.30;1.00;;;;;;20561243;28;20453;-42
2024/01/17 04:30:40;;;;;;;17.45;10.20;;;-0.40;1.00;;;;;;20559304;28;20129;-42
2024/01/17 04:40:41;;;;;;;16.33;9.43;;;-0.50;1.00;;;;;;20566114;28;20119;-43
2024/01/17 04:50:42;;;;;;;19.60;9.23;;;-0.50;1.00;;;;;;20559860;28;20082;-41
2024/01/17 05:00:46;;;;;;;18.58;9.48;;;-0.40;1.00;;;;;;20561052;28;20880;-42
2024/01/17 05:10:46;;;;;;;24.45;10.38;;;-0.50;1.00;;;;;;20566461;28;20295;-41
2024/01/17 05:20:47;;;;;;;20.38;10.07;;;-0.60;1.00;;;;;;20561267;28;20034;-42
2024/01/17 05:30:48;;;;;;;17.02;9.07;;;-0.60;1.00;;;;;;20562231;28;21102;-42
2024/01/17 05:40:48;;;;;;;18.73;8.52;;;-0.70;1.00;;;;;;20558207;28;20147;-41
2024/01/17 05:50:49;;;;;;;18.77;8.27;;;-0.60;1.00;;;;;;20563152;28;20058;-41
2024/01/17 06:00:50;;;;;;;15.27;8.68;;;-0.70;1.00;;;;;;20575585;28;20461;-41
2024/01/17 06:10:50;;;;;;;19.10;7.72;;;-0.60;1.00;;;;;;20576733;28;20572;-43
2024/01/17 06:20:53;;;;;;;18.60;7.72;;;-0.50;1.00;;;;;;20575215;28;20055;-42
2024/01/17 06:30:53;;;;;;;12.55;7.20;;;-0.50;1.00;;;;;;20571317;28;20493;-41
2024/01/17 06:40:54;;;;;;;15.05;7.47;;;-0.60;1.00;;;;;;20578145;28;20050;-41
2024/01/17 06:50:55;;;;;;;14.73;7.30;;;-0.70;1.00;;;;;;20574110;28;20050;-42
2024/01/17 07:00:56;;;;;;;14.77;6.75;;;-0.60;1.00;;;;;;20565853;28;20046;-41
2024/01/17 07:10:57;;;;;;;15.38;7.95;;;-0.60;1.00;;;;;;20577504;28;20054;-41
2024/01/17 07:20:57;;;;;;;16.70;8.95;;;-0.50;1.00;;;;;;20575009;28;20043;-40
2024/01/17 07:30:58;;;;;;;17.15;7.75;;;-0.60;1.00;;;;;;20570231;28;20047;-41
2024/01/17 07:40:59;;;;;;;15.20;8.65;;;-0.50;1.00;;;;;;20571849;28;20546;-41
2024/01/17 07:50:59;;;;;;;14.57;6.97;;;-0.50;1.00;;;;;;20568109;28;20050;-42
2024/01/17 08:01:00;;;;;;;17.25;8.02;;;-0.60;1.00;;;;;;20555300;28;20481;-41
2024/01/17 08:11:00;;;;;;;14.23;6.47;;;-0.50;1.00;;;;;;20563401;28;20038;-43
2024/01/17 08:21:01;;;;;;;11.63;6.25;;;-0.60;1.00;;;;;;20552415;28;20450;-41
2024/01/17 08:31:03;;;;;;;13.77;6.57;;;-0.60;1.00;;;;;;20569879;28;20064;-41
2024/01/17 08:41:03;;;;;;;17.35;8.40;;;-0.40;1.00;;;;;;20560028;28;20034;-40
2024/01/17 08:51:05;;;;;;;18.60;7.97;;;-0.40;1.00;;;;;;20555306;28;20096;-41
2024/01/17 09:01:06;;;;;;;19.20;8.00;;;-0.40;1.00;;;;;;20550337;28;20090;-41
2024/01/17 09:11:08;;;;;;;16.83;7.63;;;-0.40;1.00;;;;;;20556250;28;20051;-42
2024/01/17 09:21:08;;;;;;;18.88;8.55;;;-0.40;1.00;;;;;;20554571;28;20050;-40
2024/01/17 09:31:09;;;;;;;17.43;8.33;;;-0.30;1.00;;;;;;20572923;28;20038;-41
2024/01/17 09:41:10;;;;;;;18.50;8.65;;;-0.30;1.00;;;;;;20568109;28;20544;-41
2024/01/17 09:51:18;;;;;;;21.25;9.63;;;-0.20;1.00;;;;;;20572616;28;20489;-41
2024/01/17 10:01:21;;;;;;;18.00;7.97;;;-0.10;1.00;;;;;;20573919;28;20117;-40
2024/01/17 10:11:22;;;;;;;17.17;8.75;;;-0.20;1.00;;;;;;20553417;28;20047;-42
2024/01/17 10:21:22;;;;;;;15.80;7.85;;;0.10;1.00;;;;;;20568249;28;20080;-41
2024/01/17 10:31:24;;;;;;;16.35;7.43;;;0.00;1.00;;;;;;20575289;28;20039;-41
2024/01/17 10:41:25;;;;;;;18.58;7.80;;;0.20;1.00;;;;;;20577502;28;20510;-41
2024/01/17 10:51:26;;;;;;;16.17;7.95;;;0.10;1.00;;;;;;20578733;28;20939;-42
2024/01/17 11:01:37;;;;;;;16.30;7.57;;;0.20;1.00;;;;;;20572477;28;20035;-41
2024/01/17 11:11:39;;;;;;;13.25;6.70;;;0.40;1.00;;;;;;20589950;28;20130;-41
2024/01/17 11:21:40;;;;;;;34.75;15.50;;;0.40;1.00;;;;;;20585818;28;20039;-41
2024/01/17 11:32:17;;;;;;;27.20;9.32;;;0.50;1.00;;;;;;20584397;28;20371;-42
2024/01/17 11:42:18;;;;;;;16.93;8.00;;;0.50;1.00;;;;;;20552063;28;20034;-41
2024/01/17 11:52:31;;;;;;;12.63;7.03;;;0.60;1.00;;;;;;20551701;28;20089;-41
2024/01/17 12:02:39;;;;;;;27.08;11.48;;;0.50;1.00;;;;;;20543485;28;20187;-41
2024/01/17 12:12:42;;;;;;;14.02;6.55;;;0.70;1.00;;;;;;20551878;28;20104;-41
2024/01/17 12:22:52;;;;;;;13.98;7.15;;;0.70;1.00;;;;;;20555051;28;20085;-41
2024/01/17 12:32:52;;;;;;;17.83;8.02;;;0.70;1.00;;;;;;20568637;28;20134;-43
2024/01/17 12:42:56;;;;;;;16.13;7.90;;;0.80;1.00;;;;;;20573774;28;20513;-42
2024/01/17 12:52:56;;;;;;;16.90;7.78;;;0.70;1.00;;;;;;20561368;28;20504;-42
2024/01/17 13:02:57;;;;;;;24.90;11.65;;;0.80;1.00;;;;;;20568923;28;20466;-42
2024/01/17 13:12:58;;;;;;;16.70;7.97;;;1.10;1.00;;;;;;20567646;28;20124;-41
2024/01/17 13:22:58;;;;;;;19.70;7.80;;;0.90;1.00;;;;;;20564214;28;20092;-42
2024/01/17 13:32:59;;;;;;;15.48;7.10;;;1.00;1.00;;;;;;20552033;28;20109;-41
2024/01/17 13:43:03;;;;;;;15.65;7.53;;;0.80;1.00;;;;;;20566005;28;20046;-41
2024/01/17 13:53:08;;;;;;;17.60;8.02;;;0.80;1.00;;;;;;20573799;28;20054;-41
2024/01/17 14:03:09;;;;;;;23.70;10.73;;;0.80;1.00;;;;;;20555202;28;20038;-41
2024/01/17 14:13:12;;;;;;;18.45;8.52;;;0.80;1.00;;;;;;20547704;28;20042;-41
2024/01/17 14:23:13;;;;;;;17.48;8.18;;;0.80;1.00;;;;;;20565369;28;20046;-42
2024/01/17 14:33:18;;;;;;;15.03;7.67;;;0.70;1.00;;;;;;20582473;28;20041;-41
2024/01/17 14:43:19;;;;;;;14.02;8.20;;;0.80;1.00;;;;;;20585204;28;20500;-42
2024/01/17 14:53:20;;;;;;;18.70;8.67;;;0.80;1.00;;;;;;20576559;28;20047;-40
2024/01/17 15:03:20;;;;;;;18.03;9.10;;;0.80;1.00;;;;;;20587011;28;20454;-41
2024/01/17 15:13:23;;;;;;;16.38;8.93;;;0.80;1.00;;;;;;20578420;28;20550;-41
2024/01/17 15:23:23;;;;;;;18.48;8.65;;;0.70;1.00;;;;;;20578669;28;20116;-42
2024/01/17 15:33:24;;;;;;;19.80;9.25;;;0.70;1.00;;;;;;20564532;28;20043;-41
2024/01/17 15:43:25;;;;;;;19.95;9.85;;;0.70;1.00;;;;;;20569804;28;20045;-41
2024/01/17 15:53:28;;;;;;;16.23;8.95;;;0.70;1.00;;;;;;20575642;28;20059;-41
2024/01/17 16:03:29;;;;;;;21.33;10.23;;;0.60;1.00;;;;;;20575695;28;20074;-41
2024/01/17 16:13:30;;;;;;;18.35;8.85;;;0.60;1.00;;;;;;20569365;28;20038;-41
2024/01/17 16:23:30;;;;;;;18.03;9.17;;;0.60;1.00;;;;;;20576474;28;20104;-41
2024/01/17 16:33:31;;;;;;;21.67;9.67;;;0.50;1.00;;;;;;20579385;28;20465;-42
2024/01/17 16:43:33;;;;;;;18.85;9.63;;;0.60;1.00;;;;;;20582651;28;20452;-41
2024/01/17 16:53:34;;;;;;;21.98;9.93;;;0.60;1.00;;;;;;20587274;28;20049;-41
2024/01/17 17:03:34;;;;;;;19.73;10.00;;;0.50;1.00;;;;;;20584051;28;20097;-41
2024/01/17 17:13:35;;;;;;;19.13;9.93;;;0.50;1.00;;;;;;20567962;28;20049;-41
2024/01/17 17:23:35;;;;;;;17.23;10.27;;;0.50;1.00;;;;;;20569445;28;20461;-41
2024/01/17 17:33:36;;;;;;;20.60;9.90;;;0.50;1.00;;;;;;20564182;28;20046;-42
2024/01/17 17:43:37;;;;;;;21.42;10.05;;;0.60;1.00;;;;;;20564296;28;20462;-41
2024/01/17 17:53:37;;;;;;;18.95;10.77;;;0.60;1.00;;;;;;20588118;28;20061;-41
2024/01/17 18:03:38;;;;;;;19.15;10.48;;;0.60;1.00;;;;;;20586210;28;20501;-42
2024/01/17 18:13:44;;;;;;;20.38;10.77;;;0.60;1.00;;;;;;20531348;28;20039;-42
2024/01/17 18:23:46;;;;;;;17.27;9.53;;;0.60;1.00;;;;;;20576071;28;20145;-42
2024/01/17 18:33:47;;;;;;;22.65;11.23;;;0.60;1.00;;;;;;20565106;28;20195;-42
2024/01/17 18:43:47;;;;;;;22.10;10.80;;;0.60;1.00;;;;;;20568048;28;20038;-42
2024/01/17 18:53:48;;;;;;;21.90;11.20;;;0.60;1.00;;;;;;20565982;28;20461;-41
2024/01/17 19:03:49;;;;;;;22.30;10.63;;;0.60;2.40;;;;;;20571627;28;20474;-42
2024/01/17 19:13:50;;;;;;;25.25;13.05;;;0.60;4.40;;;;;;20578752;28;20458;-42
2024/01/17 19:23:51;;;;;;;23.87;12.80;;;0.60;4.60;;;;;;20562582;28;20035;-42
2024/01/17 19:33:53;;;;;;;21.05;10.82;;;0.70;2.20;;;;;;20571848;28;20458;-42
2024/01/17 19:43:53;;;;;;;24.30;12.38;;;0.70;1.00;;;;;;20563317;28;20045;-42
2024/01/17 19:53:54;;;;;;;20.98;11.65;;;0.70;1.00;;;;;;20583676;28;20078;-42
2024/01/17 20:03:55;;;;;;;20.05;11.23;;;0.70;1.00;;;;;;20585019;28;20383;-41
2024/01/17 20:13:56;;;;;;;18.83;10.38;;;0.80;1.00;;;;;;20574644;28;20035;-43
2024/01/17 20:23:57;;;;;;;21.27;11.57;;;0.70;1.00;;;;;;20586031;28;20110;-43
2024/01/17 20:33:58;;;;;;;21.00;11.25;;;0.70;4.00;;;;;;20582318;28;20050;-41
2024/01/17 20:43:58;;;;;;;23.33;12.48;;;0.80;5.80;;;;;;20580623;28;20483;-41
2024/01/17 20:53:59;;;;;;;22.27;12.70;;;0.80;8.70;;;;;;20573302;28;20039;-41
2024/01/17 21:04:02;;;;;;;23.45;11.93;;;0.80;9.80;;;;;;20570438;28;20202;-42
2024/01/17 21:14:05;;;;;;;19.77;11.30;;;0.90;12.80;;;;;;20567642;28;20670;-41
2024/01/17 21:24:05;;;;;;;20.08;11.15;;;0.90;16.10;;;;;;20572464;28;20039;-41
2024/01/17 21:34:06;;;;;;;24.08;11.75;;;0.90;20.10;;;;;;20575360;28;20097;-43
2024/01/17 21:44:09;;;;;;;26.55;12.05;;;0.90;24.50;;;;;;20585167;28;20077;-41
2024/01/17 21:54:10;;;;;;;21.90;13.23;;;0.90;30.00;;;;;;20580647;28;20050;-41
2024/01/17 22:04:14;;;;;;;21.30;11.63;;;0.90;33.70;;;;;;20586225;28;20042;-41
2024/01/17 22:14:15;;;;;;;26.55;13.55;;;0.80;40.50;;;;;;20575927;28;20092;-42
2024/01/17 22:24:15;;;;;;;24.63;13.55;;;0.80;42.40;;;;;;20568532;28;21230;-42
2024/01/17 22:34:16;;;;;;;22.27;12.95;;;0.60;44.00;;;;;;20583970;28;20050;-42
2024/01/17 22:44:19;;;;;;;23.88;13.98;;;0.50;47.00;;;;;;20579010;28;20058;-42
2024/01/17 22:54:20;;;;;;;24.17;12.43;;;0.40;50.70;;;;;;20581878;28;20145;-42
2024/01/17 23:04:20;;;;;;;27.60;11.95;;;0.30;52.70;;;;;;20575549;28;20034;-42
2024/01/17 23:14:21;;;;;;;19.98;10.55;;;0.20;48.30;;;;;;20576665;28;20047;-42
2024/01/17 23:24:24;;;;;;;24.10;11.20;;;0.10;54.80;;;;;;20581626;28;20042;-42
2024/01/17 23:34:27;;;;;;;17.73;10.20;;;-0.10;58.40;;;;;;20572464;28;20465;-41
2024/01/17 23:44:28;;;;;;;18.45;9.18;;;-0.10;59.80;;;;;;20567588;28;20510;-41
2024/01/17 23:54:29;;;;;;;20.73;9.82;;;-0.20;63.10;;;;;;20572048;28;20462;-41
